Time;durP1;ratioP1;P1;durP2;ratioP2;P2;SDS_P1;SDS_P2;PMS_P1;PMS_P2;Temp;Humidity;BMP_temperature;BMP_pressure;BME280_temperature;BME280_humidity;BME280_pressure;Samples;Min_cycle;Max_cycle;Signal;HPM_P1;HPM_P2
2021/12/13 00:01:20;;;;;;;31.08;21.77;;;10.70;99.90;;;;;;4216433;28;20188;-92
2021/12/13 00:03:38;;;;;;;32.92;22.52;;;10.80;99.90;;;;;;4199984;28;20228;-92
2021/12/13 00:05:52;;;;;;;32.22;22.10;;;10.80;99.90;;;;;;4216542;28;20229;-92
2021/12/13 00:08:01;;;;;;;35.78;22.00;;;10.70;99.90;;;;;;4199957;28;20175;-92
2021/12/13 00:10:11;;;;;;;36.25;22.20;;;10.60;99.90;;;;;;4216552;28;20166;-92
2021/12/13 00:12:22;;;;;;;37.28;21.58;;;10.60;99.90;;;;;;4199867;28;20277;-91
2021/12/13 00:14:33;;;;;;;33.92;21.95;;;10.60;99.90;;;;;;4199908;28;20210;-91
2021/12/13 00:16:38;;;;;;;36.22;22.00;;;10.50;99.90;;;;;;4216547;28;20178;-92
2021/12/13 00:18:45;;;;;;;34.00;22.52;;;10.50;99.90;;;;;;4199622;28;20175;-91
2021/12/13 00:20:52;;;;;;;41.05;22.50;;;10.40;99.90;;;;;;4216527;28;20174;-92
2021/12/13 00:22:55;;;;;;;36.15;22.80;;;10.50;99.90;;;;;;4199979;28;20167;-94
2021/12/13 00:25:05;;;;;;;35.97;22.23;;;10.50;99.90;;;;;;4199553;28;20194;-91
2021/12/13 00:27:21;;;;;;;33.63;22.63;;;10.40;99.90;;;;;;4216364;28;20219;-91
2021/12/13 00:29:30;;;;;;;31.88;21.27;;;10.40;99.90;;;;;;4199695;28;20175;-90
2021/12/13 00:32:10;;;;;;;31.88;21.10;;;10.40;99.90;;;;;;4216288;28;20169;-92
2021/12/13 00:34:38;;;;;;;35.00;22.08;;;10.30;99.90;;;;;;4190786;28;20265;-91
2021/12/13 00:37:11;;;;;;;36.08;21.98;;;10.40;99.90;;;;;;4199416;28;20171;-92
2021/12/13 00:39:36;;;;;;;31.35;20.85;;;10.50;99.90;;;;;;4190411;28;20187;-91
2021/12/13 00:41:41;;;;;;;34.42;21.92;;;10.40;99.90;;;;;;4199554;28;20182;-91
2021/12/13 00:44:01;;;;;;;30.60;20.05;;;10.40;99.90;;;;;;4199720;28;20333;-92
2021/12/13 00:46:07;;;;;;;33.58;20.50;;;10.40;99.90;;;;;;4216160;28;20604;-91
2021/12/13 00:48:09;;;;;;;32.90;20.88;;;10.50;99.90;;;;;;4199607;28;20167;-92
2021/12/13 00:50:37;;;;;;;30.30;20.98;;;10.40;99.90;;;;;;4199508;28;20270;-92
2021/12/13 00:52:41;;;;;;;33.55;21.45;;;10.30;99.90;;;;;;4199099;28;20595;-91
2021/12/13 00:54:43;;;;;;;29.65;19.80;;;10.40;99.90;;;;;;4215599;28;20252;-92
2021/12/13 00:56:59;;;;;;;34.17;21.77;;;10.50;99.90;;;;;;4199044;28;20262;-92
2021/12/13 00:59:00;;;;;;;29.58;20.98;;;10.50;99.90;;;;;;4199065;28;20174;-93
2021/12/13 01:01:08;;;;;;;27.75;19.98;;;10.50;99.90;;;;;;4198959;28;20330;-93
2021/12/13 01:03:18;;;;;;;35.47;20.70;;;10.40;99.90;;;;;;4198839;28;20664;-91
2021/12/13 01:05:37;;;;;;;33.65;21.20;;;10.50;99.90;;;;;;4215821;28;20815;-92
2021/12/13 01:08:00;;;;;;;29.67;20.60;;;10.50;99.90;;;;;;4199005;28;20327;-91
2021/12/13 01:10:37;;;;;;;29.23;19.25;;;10.60;99.90;;;;;;4198892;28;20284;-92
2021/12/13 01:12:39;;;;;;;31.13;20.35;;;10.40;99.90;;;;;;4198845;28;20179;-93
2021/12/13 01:14:59;;;;;;;30.50;20.02;;;10.30;99.90;;;;;;4215545;28;20206;-92
2021/12/13 01:17:23;;;;;;;32.50;19.67;;;10.20;99.90;;;;;;4198733;28;20182;-91
2021/12/13 01:22:41;;;;;;;28.95;19.08;;;10.30;99.90;;;;;;4215681;28;20174;-91
2021/12/13 01:26:53;;;;;;;29.17;18.65;;;10.30;99.90;;;;;;4215527;28;20173;-91
2021/12/13 01:29:03;;;;;;;32.80;19.42;;;10.50;99.90;;;;;;4215565;28;20627;-92
2021/12/13 01:31:15;;;;;;;26.63;18.52;;;10.50;99.90;;;;;;4198545;28;20565;-91
2021/12/13 01:33:18;;;;;;;31.98;18.58;;;10.70;99.90;;;;;;4215409;28;20246;-92
2021/12/13 01:35:23;;;;;;;28.13;18.27;;;10.60;99.90;;;;;;4198567;28;20301;-91
2021/12/13 01:37:31;;;;;;;27.50;18.35;;;10.40;99.90;;;;;;4198614;28;20175;-92
2021/12/13 01:39:36;;;;;;;30.50;18.63;;;10.50;99.90;;;;;;4215167;28;20354;-93
2021/12/13 01:41:48;;;;;;;27.45;18.27;;;10.60;99.90;;;;;;4198558;28;20170;-92
2021/12/13 01:44:02;;;;;;;26.75;18.20;;;10.70;99.90;;;;;;4198499;28;20166;-93
2021/12/13 01:46:03;;;;;;;30.13;18.58;;;10.50;99.90;;;;;;4198581;28;20181;-91
2021/12/13 01:48:13;;;;;;;29.17;19.80;;;10.60;99.90;;;;;;4198535;28;20167;-91
2021/12/13 01:50:19;;;;;;;33.25;19.42;;;10.60;99.90;;;;;;4198487;28;20166;-92
2021/12/13 01:52:24;;;;;;;29.20;18.42;;;10.40;99.90;;;;;;4215150;28;20515;-91
2021/12/13 01:54:27;;;;;;;26.38;18.00;;;10.60;99.90;;;;;;4197753;28;20267;-93
2021/12/13 01:58:43;;;;;;;27.52;17.20;;;10.60;99.90;;;;;;4214868;28;20182;-92
2021/12/13 02:03:03;;;;;;;28.48;18.35;;;10.40;99.90;;;;;;4214779;28;20180;-92
2021/12/13 02:05:07;;;;;;;27.65;18.77;;;10.40;99.90;;;;;;4197855;28;20205;-92
2021/12/13 02:07:09;;;;;;;27.70;18.42;;;10.40;99.90;;;;;;4198018;28;20171;-91
2021/12/13 02:09:22;;;;;;;25.85;17.70;;;10.30;99.90;;;;;;4198013;28;20202;-91
2021/12/13 02:11:24;;;;;;;27.20;17.70;;;10.30;99.90;;;;;;4197848;28;20210;-92
2021/12/13 02:13:41;;;;;;;28.88;18.40;;;10.50;99.90;;;;;;4197917;28;20163;-91
2021/12/13 02:18:05;;;;;;;27.17;16.52;;;10.40;99.90;;;;;;4214366;28;20174;-91
2021/12/13 02:20:26;;;;;;;28.25;16.83;;;10.30;99.90;;;;;;4197734;28;20181;-92
2021/12/13 02:22:35;;;;;;;25.02;15.85;;;10.30;99.90;;;;;;4197967;28;20233;-91
2021/12/13 02:24:38;;;;;;;30.25;17.17;;;10.30;99.90;;;;;;4197726;28;20603;-93
2021/12/13 02:26:44;;;;;;;29.35;16.80;;;10.30;99.90;;;;;;4198107;28;20171;-92
2021/12/13 02:28:48;;;;;;;25.83;16.23;;;10.20;99.90;;;;;;4214564;28;20208;-92
2021/12/13 02:30:55;;;;;;;25.08;16.60;;;10.30;99.90;;;;;;4197595;28;20233;-92
2021/12/13 02:32:56;;;;;;;25.65;16.10;;;10.20;99.90;;;;;;4197530;28;20174;-91
2021/12/13 02:34:59;;;;;;;27.05;15.50;;;10.20;99.90;;;;;;4214366;28;20312;-91
2021/12/13 02:37:00;;;;;;;26.17;15.73;;;10.20;99.90;;;;;;4197698;28;20171;-92
2021/12/13 02:39:09;;;;;;;23.35;15.57;;;10.20;99.90;;;;;;4197754;28;20182;-92
2021/12/13 02:41:10;;;;;;;21.08;13.88;;;10.30;99.90;;;;;;4214532;28;20630;-92
2021/12/13 02:43:13;;;;;;;25.17;15.40;;;10.10;99.90;;;;;;4197745;28;20204;-93
2021/12/13 02:45:28;;;;;;;24.35;14.82;;;10.10;99.90;;;;;;4197837;28;20713;-92
2021/12/13 02:47:37;;;;;;;23.85;14.60;;;10.00;99.90;;;;;;4214716;28;20229;-91
2021/12/13 02:49:39;;;;;;;24.50;15.35;;;10.00;99.90;;;;;;4197974;28;20202;-91
2021/12/13 02:51:46;;;;;;;22.83;14.23;;;10.00;99.90;;;;;;4198188;28;20170;-91
2021/12/13 02:53:51;;;;;;;24.67;14.93;;;10.10;99.90;;;;;;4214569;28;20748;-91
2021/12/13 02:55:52;;;;;;;23.95;14.30;;;10.10;99.90;;;;;;4197654;28;20210;-92
2021/12/13 02:57:54;;;;;;;25.50;15.13;;;10.00;99.90;;;;;;4197616;28;20508;-92
2021/12/13 03:00:06;;;;;;;23.25;14.77;;;10.10;99.90;;;;;;4197532;28;20232;-92
2021/12/13 03:02:15;;;;;;;21.67;14.25;;;10.20;99.90;;;;;;4214368;28;20196;-92
2021/12/13 03:04:19;;;;;;;26.48;14.45;;;10.20;99.90;;;;;;4197555;28;20534;-91
2021/12/13 03:06:30;;;;;;;24.30;14.38;;;10.10;99.90;;;;;;4198836;28;20316;-91
2021/12/13 03:08:48;;;;;;;21.80;13.80;;;10.10;99.90;;;;;;4217813;28;20208;-92
2021/12/13 03:10:54;;;;;;;26.50;14.55;;;10.20;99.90;;;;;;4200845;28;20670;-91
2021/12/13 03:12:55;;;;;;;23.67;14.48;;;10.10;99.90;;;;;;4217674;28;20240;-92
2021/12/13 03:15:00;;;;;;;25.40;14.40;;;10.30;99.90;;;;;;4217314;28;20217;-92
2021/12/13 03:17:08;;;;;;;23.05;13.43;;;10.20;99.90;;;;;;4200768;28;20159;-91
2021/12/13 03:19:30;;;;;;;23.17;13.93;;;10.20;99.90;;;;;;4200830;28;20265;-93
2021/12/13 03:22:02;;;;;;;21.50;13.07;;;10.20;99.90;;;;;;4200571;28;20171;-91
2021/12/13 03:24:21;;;;;;;25.77;13.35;;;10.20;99.90;;;;;;4200683;28;20182;-92
2021/12/13 03:26:45;;;;;;;27.15;13.10;;;10.20;99.90;;;;;;4200535;28;20166;-92
2021/12/13 03:29:00;;;;;;;21.60;13.00;;;10.30;99.90;;;;;;4217342;28;20188;-93
2021/12/13 03:31:12;;;;;;;20.85;13.50;;;10.40;99.90;;;;;;4200434;28;20508;-92
2021/12/13 03:33:16;;;;;;;19.98;12.68;;;10.40;99.90;;;;;;4200603;28;20550;-91
2021/12/13 03:35:29;;;;;;;20.23;12.55;;;10.40;99.90;;;;;;4200161;28;20225;-91
2021/12/13 03:37:32;;;;;;;22.58;13.60;;;10.30;99.90;;;;;;4200424;28;20204;-92
2021/12/13 03:39:34;;;;;;;20.73;12.60;;;10.30;99.90;;;;;;4200339;28;20171;-91
2021/12/13 03:41:40;;;;;;;21.67;13.20;;;10.40;99.90;;;;;;4217383;28;20182;-92
2021/12/13 03:43:55;;;;;;;20.02;12.07;;;10.30;99.90;;;;;;4200291;28;20170;-92
2021/12/13 03:46:01;;;;;;;23.10;13.82;;;10.40;99.90;;;;;;4216852;28;20293;-92
2021/12/13 03:48:05;;;;;;;22.88;13.10;;;10.40;99.90;;;;;;4200345;28;20186;-92
2021/12/13 03:50:10;;;;;;;20.70;13.00;;;10.40;99.90;;;;;;4217142;28;20174;-91
2021/12/13 03:52:15;;;;;;;23.00;13.18;;;10.40;99.90;;;;;;4200356;28;20175;-92
2021/12/13 03:54:18;;;;;;;24.02;13.48;;;10.40;99.90;;;;;;4217079;28;20201;-94
2021/12/13 03:56:28;;;;;;;20.60;13.18;;;10.30;99.90;;;;;;4200339;28;20202;-92
2021/12/13 03:58:34;;;;;;;22.50;13.30;;;10.30;99.90;;;;;;4217049;28;20166;-91
2021/12/13 04:00:44;;;;;;;22.20;13.82;;;10.30;99.90;;;;;;4200027;28;20175;-91
2021/12/13 04:02:45;;;;;;;23.25;13.73;;;10.30;99.90;;;;;;4216808;28;20573;-91
2021/12/13 04:05:14;;;;;;;21.08;13.00;;;10.20;99.90;;;;;;4199777;28;20190;-91
2021/12/13 04:07:21;;;;;;;20.83;14.02;;;10.20;99.90;;;;;;4197855;28;20187;-91
2021/12/13 04:09:24;;;;;;;22.08;14.20;;;10.20;99.90;;;;;;4199893;28;20174;-91
2021/12/13 04:11:27;;;;;;;22.23;14.02;;;10.20;99.90;;;;;;4199858;28;20163;-91
2021/12/13 04:13:33;;;;;;;21.77;13.05;;;10.20;99.90;;;;;;4199714;28;20295;-92
2021/12/13 04:16:16;;;;;;;21.00;13.95;;;10.20;99.90;;;;;;4199412;28;20281;-92
2021/12/13 04:18:28;;;;;;;22.35;13.00;;;10.20;99.90;;;;;;4213277;28;20177;-91
2021/12/13 04:20:33;;;;;;;23.60;14.93;;;10.10;99.90;;;;;;4199791;28;20611;-91
2021/12/13 04:22:37;;;;;;;24.58;13.98;;;10.10;99.90;;;;;;4200011;28;20621;-91
2021/12/13 04:24:48;;;;;;;19.52;12.68;;;10.30;99.90;;;;;;4199591;28;20199;-91
2021/12/13 04:26:53;;;;;;;21.40;13.27;;;10.30;99.90;;;;;;4199776;28;20193;-92
2021/12/13 04:29:00;;;;;;;22.63;13.57;;;10.30;99.90;;;;;;4199761;28;20171;-92
2021/12/13 04:31:06;;;;;;;23.73;13.75;;;10.30;99.90;;;;;;4199496;28;20189;-93
2021/12/13 04:33:19;;;;;;;24.00;14.65;;;10.30;99.90;;;;;;4199648;28;20257;-91
2021/12/13 04:35:20;;;;;;;21.35;13.90;;;10.40;99.90;;;;;;4199377;28;20206;-91
2021/12/13 04:37:24;;;;;;;21.33;13.20;;;10.60;99.90;;;;;;4199502;28;20680;-92
2021/12/13 04:39:34;;;;;;;22.38;13.95;;;10.50;99.90;;;;;;4215932;28;20181;-92
2021/12/13 04:41:45;;;;;;;23.58;13.35;;;10.30;99.90;;;;;;4199439;28;20170;-92
2021/12/13 04:43:46;;;;;;;22.98;14.60;;;10.20;99.90;;;;;;4215988;28;20182;-92
2021/12/13 04:45:56;;;;;;;21.52;14.00;;;10.30;99.90;;;;;;4216073;28;20281;-92
2021/12/13 04:48:10;;;;;;;24.92;13.95;;;10.20;99.90;;;;;;4199454;28;20167;-92
2021/12/13 04:50:19;;;;;;;24.38;13.35;;;10.20;99.90;;;;;;4216293;28;20166;-91
2021/12/13 04:52:21;;;;;;;21.05;13.15;;;10.20;99.90;;;;;;4199538;28;20179;-92
2021/12/13 04:54:23;;;;;;;22.73;12.80;;;10.10;99.90;;;;;;4216070;28;20197;-91
2021/12/13 04:56:27;;;;;;;18.27;12.70;;;10.20;99.90;;;;;;4199422;28;20179;-90
2021/12/13 04:58:28;;;;;;;21.10;13.25;;;10.30;99.90;;;;;;4216111;28;20174;-91
2021/12/13 05:00:35;;;;;;;25.98;14.52;;;10.60;99.90;;;;;;4199252;28;20190;-92
2021/12/13 05:02:42;;;;;;;20.85;13.02;;;10.70;99.90;;;;;;4215848;28;20287;-92
2021/12/13 05:04:43;;;;;;;23.15;14.00;;;10.60;99.90;;;;;;4198878;28;20578;-91
2021/12/13 05:06:44;;;;;;;22.27;13.55;;;10.50;99.90;;;;;;4199124;28;20162;-90
2021/12/13 05:08:48;;;;;;;20.05;13.52;;;10.60;99.90;;;;;;4215601;28;20174;-91
2021/12/13 05:10:50;;;;;;;21.77;14.35;;;10.50;99.90;;;;;;4198904;28;20171;-92
2021/12/13 05:13:05;;;;;;;22.90;14.57;;;10.40;99.90;;;;;;4215546;28;20232;-92
2021/12/13 05:15:12;;;;;;;23.63;13.40;;;10.50;99.90;;;;;;4198660;28;20709;-92
2021/12/13 05:17:17;;;;;;;20.42;12.57;;;10.50;99.90;;;;;;4215569;28;20269;-92
2021/12/13 05:19:34;;;;;;;22.17;13.57;;;10.30;99.90;;;;;;4198717;28;20179;-91
2021/12/13 05:21:47;;;;;;;21.30;13.50;;;10.10;99.90;;;;;;4215627;28;20243;-91
2021/12/13 05:23:52;;;;;;;22.10;13.95;;;10.10;99.90;;;;;;4198882;28;20178;-92
2021/12/13 05:25:56;;;;;;;23.63;14.07;;;10.20;99.90;;;;;;4198678;28;20289;-92
2021/12/13 05:28:17;;;;;;;23.20;14.32;;;10.40;99.90;;;;;;4198557;28;20196;-92
2021/12/13 05:30:23;;;;;;;23.70;13.85;;;10.50;99.90;;;;;;4198107;28;20236;-91
2021/12/13 05:32:30;;;;;;;22.42;14.13;;;10.60;99.90;;;;;;4215520;28;20166;-91
2021/12/13 05:34:59;;;;;;;23.45;14.70;;;10.40;99.90;;;;;;4198264;28;20206;-92
2021/12/13 05:37:01;;;;;;;21.92;13.20;;;10.60;99.90;;;;;;4192833;28;20218;-91
2021/12/13 05:39:17;;;;;;;22.30;13.48;;;10.60;99.90;;;;;;4199260;28;20178;-91
2021/12/13 05:41:29;;;;;;;23.90;13.32;;;10.50;99.90;;;;;;4215215;28;20182;-92
2021/12/13 05:43:48;;;;;;;25.02;13.20;;;10.40;99.90;;;;;;4198379;28;20163;-91
2021/12/13 05:46:01;;;;;;;22.25;13.57;;;10.20;99.90;;;;;;4215055;28;20287;-90
2021/12/13 05:48:20;;;;;;;20.48;12.77;;;10.20;99.90;;;;;;4198425;28;20194;-91
2021/12/13 05:50:55;;;;;;;24.98;13.57;;;10.20;99.90;;;;;;4215225;28;20181;-91
2021/12/13 05:53:06;;;;;;;18.60;11.75;;;10.30;99.90;;;;;;4198009;28;20269;-91
2021/12/13 05:55:13;;;;;;;22.35;12.95;;;10.30;99.90;;;;;;4198286;28;20250;-92
2021/12/13 05:57:35;;;;;;;21.27;12.82;;;10.10;99.90;;;;;;4198564;28;20170;-92
2021/12/13 05:59:57;;;;;;;17.98;11.80;;;10.10;99.90;;;;;;4198638;28;20181;-92
2021/12/13 06:02:14;;;;;;;20.45;11.32;;;10.20;99.90;;;;;;4215335;28;20235;-91
2021/12/13 06:04:33;;;;;;;22.77;11.43;;;10.20;99.90;;;;;;4198417;28;20167;-91
2021/12/13 06:06:55;;;;;;;20.48;11.57;;;10.20;99.90;;;;;;4198329;28;20167;-90
2021/12/13 06:08:57;;;;;;;21.90;11.55;;;10.30;99.90;;;;;;4198094;28;20175;-93
2021/12/13 06:11:03;;;;;;;20.90;11.50;;;10.40;99.90;;;;;;4198299;28;20174;-90
2021/12/13 06:13:07;;;;;;;22.52;12.60;;;10.40;99.90;;;;;;4215069;28;21042;-92
2021/12/13 06:15:29;;;;;;;26.10;12.85;;;10.50;99.90;;;;;;4197925;28;20210;-92
2021/12/13 06:17:34;;;;;;;25.52;11.75;;;10.30;99.90;;;;;;4198202;28;20166;-91
2021/12/13 06:19:40;;;;;;;25.10;12.02;;;10.20;99.90;;;;;;4198282;28;20204;-91
2021/12/13 06:21:40;;;;;;;29.63;12.57;;;10.20;99.90;;;;;;4214995;28;20220;-94
2021/12/13 06:23:41;;;;;;;27.33;12.35;;;10.50;99.90;;;;;;4198126;28;20662;-91
2021/12/13 06:25:44;;;;;;;24.40;11.60;;;10.50;99.90;;;;;;4198215;28;20179;-91
2021/12/13 06:27:51;;;;;;;26.63;12.02;;;10.20;99.90;;;;;;4214776;28;20181;-90
2021/12/13 06:29:56;;;;;;;25.50;12.32;;;10.20;99.90;;;;;;4198145;28;20272;-91
2021/12/13 06:31:56;;;;;;;23.48;12.73;;;10.30;99.90;;;;;;4198059;28;20236;-91
2021/12/13 06:34:01;;;;;;;23.92;12.27;;;10.40;99.90;;;;;;4197973;28;20185;-90
2021/12/13 06:36:03;;;;;;;22.73;11.43;;;10.40;99.90;;;;;;4197977;28;20211;-91
2021/12/13 06:38:19;;;;;;;26.98;12.55;;;10.50;99.90;;;;;;4197986;28;20171;-91
2021/12/13 06:40:27;;;;;;;26.05;12.23;;;10.50;99.90;;;;;;4197665;28;20229;-92
2021/12/13 06:42:28;;;;;;;25.15;12.02;;;10.40;99.90;;;;;;4198109;28;20241;-92
2021/12/13 06:44:41;;;;;;;22.80;11.38;;;10.20;99.90;;;;;;4197875;28;20209;-93
2021/12/13 06:47:06;;;;;;;23.70;10.85;;;10.00;99.90;;;;;;4197790;28;20170;-93
2021/12/13 06:49:20;;;;;;;23.73;11.77;;;9.90;99.90;;;;;;4198394;28;20174;-92
2021/12/13 06:51:38;;;;;;;25.55;12.18;;;9.90;99.90;;;;;;4197997;28;20175;-93
2021/12/13 06:53:41;;;;;;;21.77;11.95;;;9.80;99.90;;;;;;4214710;28;20204;-91
2021/12/13 06:55:43;;;;;;;23.42;11.57;;;9.90;99.90;;;;;;4197858;28;20211;-93
2021/12/13 06:57:48;;;;;;;27.13;12.00;;;10.10;99.90;;;;;;4197528;28;20209;-92
2021/12/13 07:00:05;;;;;;;20.10;11.07;;;10.20;99.90;;;;;;4197815;28;20193;-91
2021/12/13 07:02:13;;;;;;;20.80;10.95;;;10.10;99.90;;;;;;4192871;28;20171;-91
2021/12/13 07:04:14;;;;;;;20.70;11.18;;;10.20;99.90;;;;;;4197407;28;20219;-92
2021/12/13 07:06:19;;;;;;;21.77;11.80;;;10.20;99.90;;;;;;4197615;28;20175;-92
2021/12/13 07:08:23;;;;;;;19.27;11.63;;;10.20;99.90;;;;;;4214803;28;20177;-93
2021/12/13 07:10:32;;;;;;;27.92;12.50;;;10.20;99.90;;;;;;4197663;28;20171;-93
2021/12/13 07:12:45;;;;;;;23.30;12.07;;;10.20;99.90;;;;;;4197906;28;20174;-92
2021/12/13 07:14:47;;;;;;;22.08;11.45;;;10.20;99.90;;;;;;4214326;28;20210;-92
2021/12/13 07:16:53;;;;;;;20.55;11.48;;;10.20;99.90;;;;;;4197835;28;20641;-93
2021/12/13 07:19:03;;;;;;;24.45;12.15;;;10.00;99.90;;;;;;4197714;28;20209;-94
2021/12/13 07:21:07;;;;;;;19.38;11.02;;;10.00;99.90;;;;;;4197694;28;20242;-93
2021/12/13 07:23:08;;;;;;;25.02;11.73;;;9.90;99.90;;;;;;4198079;28;20181;-92
2021/12/13 07:25:15;;;;;;;24.73;12.65;;;9.80;99.90;;;;;;4214226;28;20182;-91
2021/12/13 07:27:30;;;;;;;20.65;11.23;;;9.80;99.90;;;;;;4197687;28;20593;-92
2021/12/13 07:29:48;;;;;;;20.05;11.93;;;9.80;99.90;;;;;;4197555;28;20175;-93
2021/12/13 07:32:10;;;;;;;21.88;11.65;;;9.90;99.90;;;;;;4197635;28;20171;-91
2021/12/13 07:34:19;;;;;;;19.40;10.98;;;10.10;99.90;;;;;;4197466;28;20214;-87
2021/12/13 07:36:27;;;;;;;23.42;11.38;;;10.10;99.90;;;;;;4197871;28;20163;-90
2021/12/13 07:38:28;;;;;;;19.00;11.60;;;10.00;99.90;;;;;;4213916;28;20527;-85
2021/12/13 07:40:34;;;;;;;22.00;11.02;;;10.00;99.90;;;;;;4213934;28;20175;-89
2021/12/13 07:42:35;;;;;;;21.83;11.00;;;10.10;99.90;;;;;;4213703;28;20645;-85
2021/12/13 07:44:48;;;;;;;24.38;11.27;;;10.10;99.90;;;;;;4197174;28;20195;-85
2021/12/13 07:47:09;;;;;;;19.88;10.70;;;10.20;99.90;;;;;;4197012;28;20233;-86
2021/12/13 07:49:10;;;;;;;22.45;11.13;;;10.00;99.90;;;;;;4197324;28;20163;-85
2021/12/13 07:51:28;;;;;;;19.30;10.60;;;10.10;99.90;;;;;;4197011;28;20641;-86
2021/12/13 07:53:39;;;;;;;19.48;11.30;;;10.20;99.90;;;;;;4216347;28;20546;-90
2021/12/13 07:55:47;;;;;;;21.35;10.48;;;10.20;99.90;;;;;;4199986;28;20214;-85
2021/12/13 07:57:50;;;;;;;19.33;11.10;;;10.20;99.90;;;;;;4200029;28;20194;-85
2021/12/13 07:59:52;;;;;;;21.20;11.25;;;10.20;99.90;;;;;;4199844;28;20573;-86
2021/12/13 08:02:23;;;;;;;21.10;11.05;;;10.30;99.90;;;;;;4200097;28;20167;-90
2021/12/13 08:04:29;;;;;;;21.27;11.15;;;10.40;99.90;;;;;;4178900;28;20217;-86
2021/12/13 08:06:39;;;;;;;20.63;10.07;;;10.40;99.90;;;;;;4217843;28;20165;-86
2021/12/13 08:08:51;;;;;;;17.92;10.02;;;10.20;99.90;;;;;;4216528;28;20240;-86
2021/12/13 08:10:57;;;;;;;20.75;10.23;;;10.30;99.90;;;;;;4217692;28;20630;-85
2021/12/13 08:13:07;;;;;;;20.25;10.23;;;10.30;99.90;;;;;;4199816;28;20177;-89
2021/12/13 08:15:16;;;;;;;18.75;9.48;;;10.20;99.90;;;;;;4216047;28;20209;-85
2021/12/13 08:17:21;;;;;;;17.45;10.82;;;10.00;99.90;;;;;;4216340;28;20174;-85
2021/12/13 08:19:31;;;;;;;17.95;9.30;;;10.10;99.90;;;;;;4199647;28;20206;-84
2021/12/13 08:21:39;;;;;;;19.92;9.88;;;10.00;99.90;;;;;;4216028;28;20181;-85
2021/12/13 08:23:49;;;;;;;18.42;9.45;;;9.90;99.90;;;;;;4199579;28;20170;-86
2021/12/13 08:25:54;;;;;;;18.15;9.52;;;9.90;99.90;;;;;;4215986;28;20301;-85
2021/12/13 08:28:01;;;;;;;16.35;8.95;;;10.00;99.90;;;;;;4199129;28;20171;-85
2021/12/13 08:30:08;;;;;;;16.67;9.10;;;10.10;99.90;;;;;;4188306;28;20314;-90
2021/12/13 08:32:21;;;;;;;16.63;9.18;;;9.90;99.90;;;;;;4199793;28;20175;-85
2021/12/13 08:34:28;;;;;;;19.52;9.13;;;10.00;99.90;;;;;;4182829;28;20203;-90
2021/12/13 08:36:39;;;;;;;13.02;7.85;;;10.00;99.90;;;;;;4199886;28;20175;-85
2021/12/13 08:38:45;;;;;;;14.82;8.85;;;9.90;99.90;;;;;;4182653;28;20586;-85
2021/12/13 08:40:46;;;;;;;18.00;9.40;;;10.10;99.90;;;;;;4182753;28;20172;-84
2021/12/13 08:42:49;;;;;;;18.40;9.13;;;9.90;99.90;;;;;;4182434;28;20174;-85
2021/12/13 08:45:08;;;;;;;17.77;9.50;;;9.90;99.90;;;;;;4182032;28;20253;-89
2021/12/13 08:47:19;;;;;;;15.30;8.15;;;9.90;99.90;;;;;;4200297;28;20163;-86
2021/12/13 08:49:30;;;;;;;16.08;8.10;;;10.10;99.90;;;;;;4202106;28;20573;-87
2021/12/13 08:51:31;;;;;;;16.38;8.75;;;10.00;99.90;;;;;;4214227;28;20184;-85
2021/12/13 08:53:36;;;;;;;15.52;8.55;;;10.00;99.90;;;;;;4198668;28;20171;-90
2021/12/13 08:55:41;;;;;;;17.92;8.95;;;10.40;99.90;;;;;;4198428;28;20251;-88
2021/12/13 08:58:12;;;;;;;15.10;9.07;;;10.20;99.90;;;;;;4195733;28;20183;-85
2021/12/13 09:00:12;;;;;;;17.75;8.75;;;10.10;99.90;;;;;;4212736;28;20183;-85
2021/12/13 09:02:13;;;;;;;14.90;8.00;;;10.00;99.90;;;;;;4216422;28;20620;-85
2021/12/13 09:04:25;;;;;;;16.52;7.40;;;10.00;99.90;;;;;;4198670;28;20175;-88
2021/12/13 09:06:30;;;;;;;17.83;8.70;;;9.80;99.90;;;;;;4215429;28;20177;-90
2021/12/13 09:08:47;;;;;;;12.85;7.57;;;10.00;99.90;;;;;;4198617;28;20167;-88
2021/12/13 09:11:24;;;;;;;18.85;8.45;;;10.00;99.90;;;;;;4213566;28;20173;-89
2021/12/13 09:13:38;;;;;;;17.17;8.23;;;10.20;99.90;;;;;;4188350;28;20186;-86
2021/12/13 09:15:41;;;;;;;15.40;8.43;;;10.30;99.90;;;;;;4215160;28;20208;-86
2021/12/13 09:17:41;;;;;;;15.43;7.97;;;10.30;99.90;;;;;;4215612;28;20170;-88
2021/12/13 09:19:55;;;;;;;15.63;8.00;;;10.20;99.90;;;;;;4209766;28;20185;-88
2021/12/13 09:22:02;;;;;;;19.83;8.15;;;10.10;99.90;;;;;;4213108;28;20170;-85
2021/12/13 09:24:03;;;;;;;14.57;8.23;;;10.00;99.90;;;;;;4195709;28;20249;-89
2021/12/13 09:26:15;;;;;;;15.40;7.72;;;10.00;99.90;;;;;;4215129;28;20519;-86
2021/12/13 09:28:22;;;;;;;14.32;7.75;;;10.00;99.90;;;;;;4198590;28;20171;-88
2021/12/13 09:30:26;;;;;;;11.70;6.90;;;10.00;99.90;;;;;;4198492;28;20216;-86
2021/12/13 09:32:53;;;;;;;14.68;7.47;;;10.20;99.90;;;;;;4198583;28;20228;-86
2021/12/13 09:35:19;;;;;;;13.75;7.60;;;10.30;99.90;;;;;;4215853;28;20222;-87
2021/12/13 09:37:21;;;;;;;13.95;7.68;;;10.30;99.90;;;;;;4216255;28;20176;-85
2021/12/13 09:39:25;;;;;;;15.73;7.13;;;10.30;99.90;;;;;;4198300;28;20270;-85
2021/12/13 09:41:38;;;;;;;16.42;9.07;;;10.30;99.90;;;;;;4215053;28;20175;-88
2021/12/13 09:43:45;;;;;;;13.93;6.85;;;10.50;99.90;;;;;;4198380;28;20178;-88
2021/12/13 09:45:53;;;;;;;14.30;7.10;;;10.40;99.90;;;;;;4198191;28;20204;-85
2021/12/13 09:47:55;;;;;;;12.80;6.47;;;10.20;99.90;;;;;;4198453;28;20638;-89
2021/12/13 09:49:56;;;;;;;13.35;7.28;;;10.10;99.90;;;;;;4198215;28;20270;-86
2021/12/13 09:51:59;;;;;;;13.77;7.45;;;10.10;99.90;;;;;;4198044;28;20642;-85
2021/12/13 09:54:04;;;;;;;13.82;7.38;;;10.20;99.90;;;;;;4214883;28;20200;-89
2021/12/13 09:56:11;;;;;;;11.52;6.78;;;10.30;99.90;;;;;;4198033;28;20199;-85
2021/12/13 09:58:16;;;;;;;13.50;6.72;;;10.20;99.90;;;;;;4198097;28;20170;-85
2021/12/13 10:00:35;;;;;;;15.48;7.22;;;10.20;99.90;;;;;;4215142;28;20253;-89
2021/12/13 10:02:40;;;;;;;14.55;7.25;;;10.20;99.90;;;;;;4197918;28;20242;-85
2021/12/13 10:04:43;;;;;;;12.45;7.03;;;10.30;99.90;;;;;;4197919;28;20251;-87
2021/12/13 10:06:48;;;;;;;14.75;7.13;;;10.50;99.90;;;;;;4214859;28;20171;-85
2021/12/13 10:08:57;;;;;;;10.18;6.60;;;10.50;99.90;;;;;;4214773;28;20174;-85
2021/12/13 10:11:06;;;;;;;14.20;7.50;;;10.40;99.90;;;;;;4214825;28;20205;-85
2021/12/13 10:13:16;;;;;;;17.65;7.68;;;10.40;99.90;;;;;;4214641;28;20174;-88
2021/12/13 10:15:26;;;;;;;13.63;7.18;;;10.40;99.90;;;;;;4197539;28;20210;-86
2021/12/13 10:17:32;;;;;;;10.43;6.63;;;10.40;99.90;;;;;;4214634;28;20680;-85
2021/12/13 10:19:41;;;;;;;12.40;6.43;;;10.50;99.90;;;;;;4197939;28;20677;-88
2021/12/13 10:21:45;;;;;;;13.50;7.00;;;10.80;99.90;;;;;;4215813;28;20165;-88
2021/12/13 10:23:57;;;;;;;12.10;6.78;;;10.90;99.90;;;;;;4214546;28;20174;-85
2021/12/13 10:26:01;;;;;;;10.30;6.57;;;11.00;99.90;;;;;;4197583;28;20198;-85
2021/12/13 10:28:06;;;;;;;14.07;6.72;;;10.70;99.90;;;;;;4198009;28;20185;-89
2021/12/13 10:30:12;;;;;;;12.75;6.18;;;10.50;99.90;;;;;;4197762;28;20175;-85
2021/12/13 10:32:18;;;;;;;12.07;5.90;;;10.50;99.90;;;;;;4214423;28;20174;-85
2021/12/13 10:34:24;;;;;;;14.10;6.75;;;10.60;99.90;;;;;;4214258;28;20190;-89
2021/12/13 10:36:28;;;;;;;11.20;6.30;;;10.70;99.90;;;;;;4197871;28;20181;-86
2021/12/13 10:38:33;;;;;;;12.68;6.93;;;10.70;99.90;;;;;;4197512;28;20163;-89
2021/12/13 10:40:38;;;;;;;14.80;6.13;;;10.70;99.90;;;;;;4214351;28;20208;-85
2021/12/13 10:42:44;;;;;;;9.75;6.03;;;10.70;99.90;;;;;;4197606;28;20162;-85
2021/12/13 10:44:45;;;;;;;13.48;5.35;;;10.80;99.90;;;;;;4197603;28;20651;-89
2021/12/13 10:46:48;;;;;;;11.93;5.80;;;10.70;99.90;;;;;;4197367;28;20571;-89
2021/12/13 10:48:55;;;;;;;11.23;6.22;;;10.60;99.90;;;;;;4197674;28;20247;-88
2021/12/13 10:51:20;;;;;;;13.02;6.72;;;10.80;99.90;;;;;;4197333;28;20212;-85
2021/12/13 10:53:24;;;;;;;11.35;6.88;;;10.80;99.90;;;;;;4214257;28;20575;-85
2021/12/13 10:55:32;;;;;;;12.02;6.55;;;10.70;99.90;;;;;;4214089;28;20552;-85
2021/12/13 10:57:39;;;;;;;11.60;5.75;;;10.90;99.90;;;;;;4214535;28;20173;-87
2021/12/13 10:59:40;;;;;;;10.23;5.75;;;11.10;99.90;;;;;;4214136;28;20641;-86
2021/12/13 11:01:45;;;;;;;13.85;5.45;;;11.20;99.90;;;;;;4215348;28;20162;-85
2021/12/13 11:03:47;;;;;;;10.10;5.50;;;10.80;99.90;;;;;;4214268;28;20174;-86
2021/12/13 11:05:48;;;;;;;13.18;5.78;;;10.70;99.90;;;;;;4197283;28;20199;-86
2021/12/13 11:07:50;;;;;;;11.15;5.57;;;10.60;99.90;;;;;;4197147;28;20355;-87
2021/12/13 11:09:53;;;;;;;13.38;5.95;;;10.80;99.90;;;;;;4215923;28;20162;-94